createdAt,value
2022-12-08T00:00:04.579Z,292
2022-12-08T00:01:04.600Z,292
2022-12-08T00:02:04.697Z,270
2022-12-08T00:03:04.665Z,270
2022-12-08T00:04:04.591Z,248
2022-12-08T00:05:04.876Z,248
2022-12-08T00:06:04.619Z,248
2022-12-08T00:07:04.586Z,248
2022-12-08T00:08:04.712Z,270
2022-12-08T00:09:04.573Z,270
2022-12-08T00:10:19.140Z,270
2022-12-08T00:11:04.627Z,270
2022-12-08T00:12:04.591Z,270
2022-12-08T00:13:04.581Z,270
2022-12-08T00:14:04.584Z,90
2022-12-08T00:15:04.938Z,90
2022-12-08T00:16:04.655Z,112
2022-12-08T00:17:04.831Z,180
2022-12-08T00:18:04.587Z,180
2022-12-08T00:19:04.585Z,180
2022-12-08T00:20:04.585Z,180
2022-12-08T00:21:04.599Z,112
2022-12-08T00:22:04.583Z,112
2022-12-08T00:23:04.578Z,112
2022-12-08T00:24:04.578Z,112
2022-12-08T00:25:04.823Z,270
2022-12-08T00:26:04.592Z,270
2022-12-08T00:27:04.604Z,270
2022-12-08T00:28:04.590Z,248
2022-12-08T00:29:04.582Z,248
2022-12-08T00:30:04.580Z,248
2022-12-08T00:31:04.612Z,248
2022-12-08T00:32:04.631Z,248
2022-12-08T00:33:04.587Z,248
2022-12-08T00:34:04.601Z,248
2022-12-08T00:35:04.859Z,248
2022-12-08T00:36:04.611Z,248
2022-12-08T00:37:04.610Z,248
2022-12-08T00:38:04.579Z,248
2022-12-08T00:39:04.586Z,248
2022-12-08T00:40:04.686Z,248
2022-12-08T00:41:04.624Z,158
2022-12-08T00:42:04.583Z,158
2022-12-08T00:43:04.669Z,158
2022-12-08T00:44:04.585Z,202
2022-12-08T00:45:04.605Z,202
2022-12-08T00:46:04.643Z,202
2022-12-08T00:47:04.581Z,180
2022-12-08T00:48:04.587Z,202
2022-12-08T00:49:04.596Z,225
2022-12-08T00:50:04.717Z,225
2022-12-08T00:51:04.601Z,225
2022-12-08T00:52:04.589Z,248
2022-12-08T00:53:04.591Z,270
2022-12-08T00:54:04.585Z,270
2022-12-08T00:55:04.594Z,270
2022-12-08T00:56:04.603Z,202
2022-12-08T00:57:04.584Z,248
2022-12-08T00:58:04.590Z,248
2022-12-08T00:59:04.617Z,158
2022-12-08T01:00:04.727Z,158
2022-12-08T01:01:04.640Z,180
2022-12-08T01:02:04.588Z,292
2022-12-08T01:03:04.665Z,270
2022-12-08T01:04:04.599Z,270
2022-12-08T01:05:04.613Z,270
2022-12-08T01:06:04.599Z,270
2022-12-08T01:07:04.588Z,180
2022-12-08T01:08:04.666Z,248
2022-12-08T01:09:04.591Z,248
2022-12-08T01:10:04.837Z,225
2022-12-08T01:11:04.600Z,248
2022-12-08T01:12:04.598Z,248
2022-12-08T01:13:04.583Z,158
2022-12-08T01:14:04.593Z,180
2022-12-08T01:15:04.612Z,248
2022-12-08T01:16:04.616Z,248
2022-12-08T01:17:04.655Z,248
2022-12-08T01:18:04.603Z,248
2022-12-08T01:19:04.603Z,158
2022-12-08T01:20:04.914Z,248
2022-12-08T01:21:04.638Z,292
2022-12-08T01:22:04.600Z,292
2022-12-08T01:23:04.616Z,292
2022-12-08T01:24:04.601Z,292
2022-12-08T01:25:04.589Z,292
2022-12-08T01:26:04.621Z,292
2022-12-08T01:27:04.609Z,68
2022-12-08T01:28:04.768Z,68
2022-12-08T01:29:04.588Z,68
2022-12-08T01:30:04.851Z,68
2022-12-08T01:31:04.736Z,158
2022-12-08T01:32:04.599Z,158
2022-12-08T01:33:04.602Z,158
2022-12-08T01:34:04.593Z,158
2022-12-08T01:35:04.600Z,158
2022-12-08T01:36:04.622Z,158
2022-12-08T01:37:04.605Z,158
2022-12-08T01:38:04.598Z,158
2022-12-08T01:39:04.597Z,158
2022-12-08T01:40:04.820Z,225
2022-12-08T01:41:04.611Z,270
2022-12-08T01:42:04.587Z,248
2022-12-08T01:43:04.594Z,158
2022-12-08T01:44:04.594Z,248
2022-12-08T01:45:04.595Z,248
2022-12-08T01:46:04.694Z,248
2022-12-08T01:47:04.614Z,248
2022-12-08T01:48:04.682Z,248
2022-12-08T01:49:04.596Z,248
2022-12-08T01:50:04.921Z,248
2022-12-08T01:51:04.613Z,248
2022-12-08T01:52:04.607Z,248
2022-12-08T01:53:04.600Z,158
2022-12-08T01:54:04.590Z,202
2022-12-08T01:55:04.594Z,248
2022-12-08T01:56:04.604Z,292
2022-12-08T01:57:04.588Z,292
2022-12-08T01:58:04.591Z,292
2022-12-08T01:59:04.590Z,248
2022-12-08T02:00:04.936Z,315
2022-12-08T02:01:04.704Z,315
2022-12-08T02:02:04.634Z,248
2022-12-08T02:03:04.778Z,270
2022-12-08T02:04:04.626Z,135
2022-12-08T02:05:04.596Z,225
2022-12-08T02:06:04.612Z,248
2022-12-08T02:07:07.901Z,248
2022-12-08T02:08:04.794Z,248
2022-12-08T02:09:04.599Z,270
2022-12-08T02:10:04.908Z,158
2022-12-08T02:11:04.613Z,248
2022-12-08T02:12:04.604Z,225
2022-12-08T02:13:04.596Z,248
2022-12-08T02:14:04.625Z,248
2022-12-08T02:15:05.432Z,248
2022-12-08T02:16:04.667Z,248
2022-12-08T02:17:04.594Z,180
2022-12-08T02:18:04.596Z,270
2022-12-08T02:19:29.502Z,248
2022-12-08T02:20:04.779Z,248
2022-12-08T02:21:04.626Z,248
2022-12-08T02:22:04.598Z,248
2022-12-08T02:23:04.603Z,248
2022-12-08T02:24:04.599Z,248
2022-12-08T02:25:04.592Z,248
2022-12-08T02:26:04.617Z,248
2022-12-08T02:27:04.600Z,248
2022-12-08T02:28:04.588Z,248
2022-12-08T02:29:04.593Z,292
2022-12-08T02:30:04.886Z,292
2022-12-08T02:31:04.655Z,292
2022-12-08T02:32:04.710Z,292
2022-12-08T02:33:04.595Z,292
2022-12-08T02:34:04.594Z,292
2022-12-08T02:35:04.608Z,248
2022-12-08T02:36:04.608Z,202
2022-12-08T02:37:04.592Z,202
2022-12-08T02:38:04.597Z,180
2022-12-08T02:39:04.588Z,202
2022-12-08T02:40:04.803Z,248
2022-12-08T02:41:04.622Z,292
2022-12-08T02:42:04.608Z,248
2022-12-08T02:43:04.599Z,248
2022-12-08T02:44:04.845Z,248
2022-12-08T02:45:04.599Z,248
2022-12-08T02:46:04.643Z,202
2022-12-08T02:47:04.599Z,180
2022-12-08T02:48:04.598Z,180
2022-12-08T02:49:04.591Z,202
2022-12-08T02:50:04.877Z,180
2022-12-08T02:51:04.643Z,202
2022-12-08T02:52:04.591Z,180
2022-12-08T02:54:04.608Z,202
2022-12-08T02:55:04.597Z,248
2022-12-08T02:56:04.619Z,180
2022-12-08T02:57:04.604Z,202
2022-12-08T02:58:04.619Z,248
2022-12-08T02:59:04.605Z,248
2022-12-08T03:00:04.988Z,270
2022-12-08T03:01:04.669Z,270
2022-12-08T03:02:04.655Z,270
2022-12-08T03:03:04.629Z,270
2022-12-08T03:04:04.600Z,270
2022-12-08T03:05:04.592Z,248
2022-12-08T03:06:04.625Z,225
2022-12-08T03:07:04.652Z,202
2022-12-08T03:08:04.672Z,202
2022-12-08T03:09:04.610Z,202
2022-12-08T03:10:04.855Z,248
2022-12-08T03:11:04.616Z,248
2022-12-08T03:12:04.596Z,248
2022-12-08T03:13:04.611Z,248
2022-12-08T03:14:04.595Z,248
2022-12-08T03:15:04.608Z,180
2022-12-08T03:16:04.672Z,202
2022-12-08T03:17:04.620Z,202
2022-12-08T03:18:04.601Z,202
2022-12-08T03:19:04.605Z,158
2022-12-08T03:20:04.827Z,158
2022-12-08T03:21:04.630Z,225
2022-12-08T03:22:04.607Z,202
2022-12-08T03:23:04.636Z,158
2022-12-08T03:24:04.612Z,158
2022-12-08T03:25:04.605Z,225
2022-12-08T03:26:04.644Z,248
2022-12-08T03:27:04.631Z,248
2022-12-08T03:28:04.618Z,180
2022-12-08T03:29:04.647Z,158
2022-12-08T03:30:04.826Z,180
2022-12-08T03:31:04.678Z,180
2022-12-08T03:32:04.633Z,180
2022-12-08T03:33:04.620Z,202
2022-12-08T03:34:04.626Z,180
2022-12-08T03:35:04.631Z,180
2022-12-08T03:36:04.642Z,292
2022-12-08T03:37:04.615Z,292
2022-12-08T03:38:04.621Z,22
2022-12-08T03:39:04.655Z,248
2022-12-08T03:40:04.909Z,158
2022-12-08T03:41:04.629Z,135
2022-12-08T03:42:04.619Z,202
2022-12-08T03:43:04.635Z,180
2022-12-08T03:44:04.638Z,135
2022-12-08T03:45:04.633Z,180
2022-12-08T03:46:04.677Z,180
2022-12-08T03:47:04.634Z,180
2022-12-08T03:48:04.618Z,225
2022-12-08T03:49:04.622Z,158
2022-12-08T03:50:04.731Z,180
2022-12-08T03:51:04.655Z,202
2022-12-08T03:52:04.629Z,202
2022-12-08T03:53:04.616Z,248
2022-12-08T03:54:04.622Z,248
2022-12-08T03:55:04.652Z,112
2022-12-08T03:56:04.645Z,158
2022-12-08T03:57:04.628Z,248
2022-12-08T03:58:04.632Z,180
2022-12-08T03:59:04.639Z,112
2022-12-08T04:00:04.865Z,112
2022-12-08T04:01:04.635Z,292
2022-12-08T04:02:04.712Z,292
2022-12-08T04:03:04.726Z,292
2022-12-08T04:04:04.637Z,292
2022-12-08T04:05:04.631Z,292
2022-12-08T04:06:04.624Z,292
2022-12-08T04:07:04.628Z,292
2022-12-08T04:08:04.677Z,292
2022-12-08T04:09:04.631Z,292
2022-12-08T04:10:04.987Z,292
2022-12-08T04:11:04.668Z,292
2022-12-08T04:12:04.640Z,292
2022-12-08T04:13:04.642Z,292
2022-12-08T04:14:04.652Z,292
2022-12-08T04:15:04.633Z,292
2022-12-08T04:16:04.710Z,292
2022-12-08T04:17:04.629Z,22
2022-12-08T04:18:04.653Z,22
2022-12-08T04:19:04.653Z,22
2022-12-08T04:20:05.002Z,22
2022-12-08T04:21:04.654Z,22
2022-12-08T04:22:04.632Z,22
2022-12-08T04:23:04.620Z,22
2022-12-08T04:24:04.622Z,22
2022-12-08T04:25:04.618Z,22
2022-12-08T04:26:04.663Z,22
2022-12-08T04:27:04.678Z,22
2022-12-08T04:28:04.618Z,22
2022-12-08T04:29:04.650Z,22
2022-12-08T04:30:04.794Z,22
2022-12-08T04:31:04.680Z,158
2022-12-08T04:32:04.651Z,180
2022-12-08T04:33:04.620Z,225
2022-12-08T04:34:04.739Z,225
2022-12-08T04:35:04.837Z,270
2022-12-08T04:36:04.641Z,292
2022-12-08T04:37:04.628Z,292
2022-12-08T04:38:04.648Z,292
2022-12-08T04:39:04.647Z,292
2022-12-08T04:40:04.895Z,292
2022-12-08T04:41:04.636Z,292
2022-12-08T04:42:04.644Z,292
2022-12-08T04:43:04.684Z,292
2022-12-08T04:44:04.635Z,292
2022-12-08T04:45:04.626Z,292
2022-12-08T04:46:04.653Z,292
2022-12-08T04:47:04.742Z,292
2022-12-08T04:48:04.629Z,292
2022-12-08T04:49:04.635Z,292
2022-12-08T04:50:04.743Z,292
2022-12-08T04:51:04.660Z,292
2022-12-08T04:52:04.676Z,292
2022-12-08T04:53:04.646Z,292
2022-12-08T04:54:04.647Z,338
2022-12-08T04:55:04.629Z,68
2022-12-08T04:56:04.654Z,202
2022-12-08T04:57:04.648Z,202
2022-12-08T04:58:04.636Z,202
2022-12-08T04:59:04.676Z,202
2022-12-08T05:00:04.952Z,202
2022-12-08T05:01:04.692Z,202
2022-12-08T05:02:04.823Z,202
2022-12-08T05:03:04.715Z,202
2022-12-08T05:04:04.634Z,202
2022-12-08T05:05:04.653Z,202
2022-12-08T05:06:04.649Z,202
2022-12-08T05:07:04.627Z,202
2022-12-08T05:08:04.724Z,202
2022-12-08T05:09:04.639Z,202
2022-12-08T05:10:04.954Z,202
2022-12-08T05:11:04.791Z,202
2022-12-08T05:12:04.644Z,202
2022-12-08T05:13:04.635Z,202
2022-12-08T05:14:04.638Z,202
2022-12-08T05:15:04.679Z,202
2022-12-08T05:16:04.715Z,202
2022-12-08T05:17:09.268Z,202
2022-12-08T05:18:04.636Z,202
2022-12-08T05:19:04.641Z,202
2022-12-08T05:20:04.882Z,202
2022-12-08T05:21:04.658Z,202
2022-12-08T05:22:04.636Z,202
2022-12-08T05:23:04.638Z,202
2022-12-08T05:24:04.642Z,202
2022-12-08T05:25:04.650Z,202
2022-12-08T05:26:04.700Z,158
2022-12-08T05:27:04.638Z,202
2022-12-08T05:28:32.614Z,225
2022-12-08T05:29:04.630Z,248
2022-12-08T05:30:04.919Z,248
2022-12-08T05:31:04.766Z,248
2022-12-08T05:32:04.812Z,248
2022-12-08T05:33:04.639Z,248
2022-12-08T05:34:04.632Z,248
2022-12-08T05:35:04.651Z,248
2022-12-08T05:36:04.662Z,158
2022-12-08T05:37:04.636Z,158
2022-12-08T05:38:04.645Z,248
2022-12-08T05:39:04.646Z,248
2022-12-08T05:40:04.917Z,248
2022-12-08T05:41:04.805Z,248
2022-12-08T05:42:04.632Z,248
2022-12-08T05:43:04.684Z,248
2022-12-08T05:44:04.662Z,248
2022-12-08T05:45:04.636Z,292
2022-12-08T05:46:04.737Z,270
2022-12-08T05:47:04.664Z,270
2022-12-08T05:48:04.661Z,248
2022-12-08T05:49:04.632Z,248
2022-12-08T05:50:04.784Z,248
2022-12-08T05:51:04.678Z,248
2022-12-08T05:52:04.643Z,158
2022-12-08T05:53:04.641Z,158
2022-12-08T05:54:04.645Z,158
2022-12-08T05:55:04.640Z,180
2022-12-08T05:56:04.688Z,158
2022-12-08T05:57:04.668Z,180
2022-12-08T05:58:07.947Z,248
2022-12-08T05:59:04.647Z,248
2022-12-08T06:00:05.033Z,158
2022-12-08T06:01:04.670Z,270
2022-12-08T06:02:04.744Z,202
2022-12-08T06:03:04.832Z,225
2022-12-08T06:04:04.634Z,292
2022-12-08T06:05:04.656Z,292
2022-12-08T06:06:04.646Z,270
2022-12-08T06:07:04.637Z,270
2022-12-08T06:08:04.719Z,270
2022-12-08T06:09:04.656Z,248
2022-12-08T06:10:04.970Z,248
2022-12-08T06:11:04.666Z,270
2022-12-08T06:12:04.652Z,270
2022-12-08T06:13:04.639Z,180
2022-12-08T06:14:04.646Z,158
2022-12-08T06:15:04.663Z,202
2022-12-08T06:16:04.675Z,158
2022-12-08T06:17:04.686Z,248
2022-12-08T06:18:04.661Z,248
2022-12-08T06:19:04.660Z,225
2022-12-08T06:20:04.869Z,248
2022-12-08T06:21:04.762Z,202
2022-12-08T06:22:04.664Z,270
2022-12-08T06:23:04.658Z,292
2022-12-08T06:24:04.756Z,180
2022-12-08T06:25:07.261Z,248
2022-12-08T06:26:04.674Z,270
2022-12-08T06:27:04.644Z,180
2022-12-08T06:28:04.640Z,270
2022-12-08T06:29:04.639Z,180
2022-12-08T06:30:04.893Z,248
2022-12-08T06:31:04.652Z,248
2022-12-08T06:32:04.722Z,248
2022-12-08T06:33:04.645Z,248
2022-12-08T06:34:04.647Z,248
2022-12-08T06:35:04.662Z,248
2022-12-08T06:36:04.679Z,248
2022-12-08T06:37:04.644Z,248
2022-12-08T06:38:04.644Z,248
2022-12-08T06:39:04.643Z,248
2022-12-08T06:40:04.957Z,248
2022-12-08T06:41:04.659Z,248
2022-12-08T06:42:04.656Z,180
2022-12-08T06:43:04.647Z,202
2022-12-08T06:44:04.642Z,248
2022-12-08T06:45:04.675Z,270
2022-12-08T06:46:04.722Z,270
2022-12-08T06:47:04.681Z,248
2022-12-08T06:48:04.641Z,248
2022-12-08T06:49:04.643Z,248
2022-12-08T06:50:04.983Z,248
2022-12-08T06:51:04.695Z,248
2022-12-08T06:52:04.652Z,248
2022-12-08T06:53:05.595Z,248
2022-12-08T06:54:04.653Z,248
2022-12-08T06:55:04.645Z,248
2022-12-08T06:56:04.673Z,248
2022-12-08T06:57:04.648Z,248
2022-12-08T06:58:04.654Z,202
2022-12-08T06:59:04.653Z,248
2022-12-08T07:00:04.833Z,248
2022-12-08T07:01:04.769Z,248
2022-12-08T07:02:04.852Z,135
2022-12-08T07:03:04.665Z,248
2022-12-08T07:04:04.645Z,248
2022-12-08T07:05:04.645Z,158
2022-12-08T07:06:04.825Z,180
2022-12-08T07:07:04.669Z,158
2022-12-08T07:08:04.706Z,225
2022-12-08T07:09:04.653Z,248
2022-12-08T07:10:04.977Z,248
2022-12-08T07:11:04.669Z,180
2022-12-08T07:12:04.660Z,270
2022-12-08T07:13:04.651Z,248
2022-12-08T07:14:04.654Z,248
2022-12-08T07:15:04.661Z,248
2022-12-08T07:16:04.667Z,248
2022-12-08T07:17:04.721Z,248
2022-12-08T07:18:04.669Z,248
2022-12-08T07:19:04.662Z,248
2022-12-08T07:20:05.024Z,248
2022-12-08T07:21:04.665Z,248
2022-12-08T07:22:04.658Z,248
2022-12-08T07:23:04.676Z,248
2022-12-08T07:24:04.676Z,248
2022-12-08T07:25:04.680Z,248
2022-12-08T07:26:04.729Z,248
2022-12-08T07:27:04.671Z,248
2022-12-08T07:28:04.658Z,248
2022-12-08T07:29:04.664Z,248
2022-12-08T07:30:05.028Z,248
2022-12-08T07:31:04.712Z,248
2022-12-08T07:32:04.662Z,248
2022-12-08T07:33:04.662Z,248
2022-12-08T07:34:04.668Z,248
2022-12-08T07:35:04.686Z,248
2022-12-08T07:36:04.686Z,292
2022-12-08T07:37:04.694Z,292
2022-12-08T07:38:04.810Z,292
2022-12-08T07:39:04.697Z,270
2022-12-08T07:40:05.014Z,270
2022-12-08T07:41:04.728Z,270
2022-12-08T07:42:04.679Z,270
2022-12-08T07:43:04.680Z,270
2022-12-08T07:44:04.680Z,248
2022-12-08T07:45:04.672Z,248
2022-12-08T07:46:04.775Z,248
2022-12-08T07:47:04.677Z,248
2022-12-08T07:48:04.693Z,248
2022-12-08T07:49:04.682Z,248
2022-12-08T07:50:04.927Z,248
2022-12-08T07:51:04.711Z,248
2022-12-08T07:52:04.702Z,202
2022-12-08T07:53:04.676Z,315
2022-12-08T07:54:04.704Z,338
2022-12-08T07:55:04.693Z,315
2022-12-08T07:56:04.723Z,270
2022-12-08T07:57:04.678Z,248
2022-12-08T07:58:04.687Z,158
2022-12-08T07:59:04.683Z,158
2022-12-08T08:00:04.975Z,225
2022-12-08T08:01:04.798Z,248
2022-12-08T08:02:23.244Z,248
2022-12-08T08:03:04.740Z,248
2022-12-08T08:04:04.743Z,248
2022-12-08T08:05:04.787Z,158
2022-12-08T08:06:04.687Z,158
2022-12-08T08:07:04.680Z,248
2022-12-08T08:08:04.760Z,180
2022-12-08T08:09:04.674Z,158
2022-12-08T08:10:04.949Z,135
2022-12-08T08:11:09.037Z,135
2022-12-08T08:12:29.425Z,270
2022-12-08T08:13:04.678Z,270
2022-12-08T08:14:04.690Z,270
2022-12-08T08:15:04.677Z,270
2022-12-08T08:16:04.866Z,270
2022-12-08T08:17:04.818Z,270
2022-12-08T08:18:04.675Z,270
2022-12-08T08:19:04.678Z,270
2022-12-08T08:20:04.856Z,270
2022-12-08T08:21:15.933Z,270
2022-12-08T08:22:04.676Z,270
2022-12-08T08:23:04.681Z,270
2022-12-08T08:24:04.699Z,270
2022-12-08T08:25:04.676Z,270
2022-12-08T08:26:04.697Z,248
2022-12-08T08:27:04.714Z,248
2022-12-08T08:28:04.697Z,248
2022-12-08T08:29:04.724Z,202
2022-12-08T08:30:05.047Z,202
2022-12-08T08:31:04.782Z,202
2022-12-08T08:32:04.696Z,202
2022-12-08T08:33:04.712Z,315
2022-12-08T08:34:04.700Z,315
2022-12-08T08:35:04.713Z,135
2022-12-08T08:36:04.713Z,135
2022-12-08T08:37:04.748Z,270
2022-12-08T08:38:04.690Z,270
2022-12-08T08:39:04.716Z,270
2022-12-08T08:40:05.003Z,270
2022-12-08T08:41:04.879Z,270
2022-12-08T08:42:04.689Z,270
2022-12-08T08:43:04.721Z,270
2022-12-08T08:44:04.703Z,225
2022-12-08T08:45:04.686Z,292
2022-12-08T08:46:04.791Z,270
2022-12-08T08:47:04.704Z,225
2022-12-08T08:48:04.709Z,225
2022-12-08T08:49:04.737Z,180
2022-12-08T08:50:05.050Z,202
2022-12-08T08:51:04.726Z,225
2022-12-08T08:52:04.698Z,338
2022-12-08T08:53:04.709Z,270
2022-12-08T08:54:04.691Z,270
2022-12-08T08:55:04.695Z,270
2022-12-08T08:56:04.701Z,248
2022-12-08T08:57:04.691Z,248
2022-12-08T08:58:04.714Z,248
2022-12-08T08:59:04.785Z,270
2022-12-08T09:00:05.064Z,292
2022-12-08T09:01:04.720Z,292
2022-12-08T09:02:04.768Z,292
2022-12-08T09:03:04.697Z,292
2022-12-08T09:04:04.745Z,248
2022-12-08T09:05:04.856Z,180
2022-12-08T09:06:04.802Z,248
2022-12-08T09:07:04.705Z,202
2022-12-08T09:08:04.803Z,202
2022-12-08T09:09:04.708Z,225
2022-12-08T09:10:04.938Z,248
2022-12-08T09:11:04.742Z,248
2022-12-08T09:12:04.705Z,270
2022-12-08T09:13:04.705Z,270
2022-12-08T09:14:04.718Z,248
2022-12-08T09:15:04.728Z,248
2022-12-08T09:16:04.746Z,248
2022-12-08T09:17:04.713Z,248
2022-12-08T09:18:04.742Z,248
2022-12-08T09:19:04.754Z,248
2022-12-08T09:20:05.022Z,270
2022-12-08T09:21:04.729Z,270
2022-12-08T09:22:04.721Z,270
2022-12-08T09:23:04.715Z,248
2022-12-08T09:24:04.728Z,248
2022-12-08T09:25:04.714Z,135
2022-12-08T09:26:04.779Z,158
2022-12-08T09:27:04.728Z,248
2022-12-08T09:28:04.719Z,248
2022-12-08T09:29:04.708Z,202
2022-12-08T09:30:05.135Z,225
2022-12-08T09:31:05.001Z,225
2022-12-08T09:32:04.750Z,225
2022-12-08T09:33:04.749Z,202
2022-12-08T09:34:04.984Z,248
2022-12-08T09:35:04.720Z,248
2022-12-08T09:36:04.728Z,248
2022-12-08T09:37:04.725Z,248
2022-12-08T09:38:04.739Z,248
2022-12-08T09:39:04.721Z,248
2022-12-08T09:40:05.056Z,248
2022-12-08T09:41:04.737Z,248
2022-12-08T09:42:04.734Z,248
2022-12-08T09:43:04.734Z,248
2022-12-08T09:44:04.721Z,202
2022-12-08T09:45:04.720Z,135
2022-12-08T09:46:04.805Z,202
2022-12-08T09:47:04.834Z,202
2022-12-08T09:48:04.727Z,202
2022-12-08T09:49:04.777Z,180
2022-12-08T09:50:05.208Z,158
2022-12-08T09:51:04.789Z,158
2022-12-08T09:52:04.738Z,158
2022-12-08T09:53:04.745Z,248
2022-12-08T09:54:04.744Z,248
2022-12-08T09:55:04.734Z,248
2022-12-08T09:56:04.799Z,248
2022-12-08T09:57:04.738Z,270
2022-12-08T09:58:04.746Z,270
2022-12-08T09:59:04.745Z,270
2022-12-08T10:00:05.162Z,270
2022-12-08T10:01:04.791Z,270
2022-12-08T10:02:04.823Z,158
2022-12-08T10:03:04.756Z,158
2022-12-08T10:04:04.751Z,158
2022-12-08T10:05:04.811Z,270
2022-12-08T10:06:04.750Z,270
2022-12-08T10:07:04.809Z,270
2022-12-08T10:08:04.795Z,248
2022-12-08T10:09:04.744Z,202
2022-12-08T10:10:05.000Z,270
2022-12-08T10:11:04.754Z,270
2022-12-08T10:12:04.743Z,270
2022-12-08T10:13:04.742Z,270
2022-12-08T10:14:04.738Z,270
2022-12-08T10:15:04.746Z,270
2022-12-08T10:16:04.779Z,270
2022-12-08T10:17:04.792Z,270
2022-12-08T10:18:04.745Z,270
2022-12-08T10:19:04.966Z,270
2022-12-08T10:20:04.980Z,270
2022-12-08T10:21:04.776Z,270
2022-12-08T10:22:04.763Z,270
2022-12-08T10:23:04.739Z,270
2022-12-08T10:24:04.749Z,270
2022-12-08T10:25:04.731Z,158
2022-12-08T10:26:04.749Z,270
2022-12-08T10:27:04.768Z,292
2022-12-08T10:28:04.770Z,292
2022-12-08T10:29:04.738Z,270
2022-12-08T10:30:05.060Z,270
2022-12-08T10:31:04.826Z,270
2022-12-08T10:32:04.794Z,270
2022-12-08T10:33:04.734Z,270
2022-12-08T10:34:04.733Z,270
2022-12-08T10:35:04.764Z,270
2022-12-08T10:36:04.809Z,135
2022-12-08T10:37:04.739Z,158
2022-12-08T10:38:04.737Z,270
2022-12-08T10:39:04.736Z,292
2022-12-08T10:40:05.056Z,292
2022-12-08T10:41:04.765Z,292
2022-12-08T10:42:04.749Z,292
2022-12-08T10:43:04.788Z,292
2022-12-08T10:44:04.748Z,292
2022-12-08T10:45:04.744Z,292
2022-12-08T10:46:04.763Z,158
2022-12-08T10:47:04.781Z,202
2022-12-08T10:48:04.753Z,270
2022-12-08T10:49:04.737Z,270
2022-12-08T10:50:05.036Z,270
2022-12-08T10:51:04.779Z,292
2022-12-08T10:52:04.743Z,270
2022-12-08T10:53:04.736Z,270
2022-12-08T10:54:04.765Z,270
2022-12-08T10:55:04.741Z,270
2022-12-08T10:56:04.761Z,270
2022-12-08T10:57:04.752Z,270
2022-12-08T10:58:04.765Z,270
2022-12-08T10:59:04.756Z,270
2022-12-08T11:00:08.161Z,270
2022-12-08T11:01:04.810Z,270
2022-12-08T11:02:04.785Z,248
2022-12-08T11:03:04.892Z,270
2022-12-08T11:04:04.752Z,270
2022-12-08T11:05:04.743Z,270
2022-12-08T11:06:10.662Z,248
2022-12-08T11:07:04.867Z,202
2022-12-08T11:08:04.906Z,135
2022-12-08T11:09:04.765Z,270
2022-12-08T11:10:05.115Z,270
2022-12-08T11:11:04.758Z,270
2022-12-08T11:12:04.750Z,270
2022-12-08T11:13:04.761Z,270
2022-12-08T11:14:04.744Z,270
2022-12-08T11:15:04.751Z,270
2022-12-08T11:16:04.840Z,270
2022-12-08T11:17:04.809Z,270
2022-12-08T11:18:04.781Z,270
2022-12-08T11:19:04.973Z,270
2022-12-08T11:20:05.112Z,292
2022-12-08T11:21:04.886Z,292
2022-12-08T11:22:04.747Z,292
2022-12-08T11:23:04.783Z,180
2022-12-08T11:24:05.795Z,225
2022-12-08T11:25:04.764Z,270
2022-12-08T11:26:04.785Z,270
2022-12-08T11:27:04.789Z,248
2022-12-08T11:28:04.792Z,248
2022-12-08T11:29:04.766Z,248
2022-12-08T11:30:08.495Z,248
2022-12-08T11:31:04.818Z,248
2022-12-08T11:32:04.799Z,180
2022-12-08T11:33:04.779Z,270
2022-12-08T11:34:04.763Z,248
2022-12-08T11:35:04.778Z,225
2022-12-08T11:36:04.785Z,248
2022-12-08T11:37:04.784Z,248
2022-12-08T11:38:20.393Z,225
2022-12-08T11:39:04.784Z,248
2022-12-08T11:40:05.086Z,248
2022-12-08T11:41:04.792Z,202
2022-12-08T11:42:04.760Z,225
2022-12-08T11:43:04.767Z,248
2022-12-08T11:44:04.769Z,225
2022-12-08T11:45:05.080Z,270
2022-12-08T11:46:04.865Z,202
2022-12-08T11:47:04.773Z,248
2022-12-08T11:48:04.809Z,248
2022-12-08T11:49:06.887Z,248
2022-12-08T11:50:05.145Z,248
2022-12-08T11:51:04.786Z,225
2022-12-08T11:52:04.761Z,225
2022-12-08T11:53:04.767Z,202
2022-12-08T11:54:04.784Z,225
2022-12-08T11:55:04.792Z,202
2022-12-08T11:56:04.785Z,248
2022-12-08T11:57:04.778Z,248
2022-12-08T11:58:04.831Z,248
2022-12-08T11:59:04.784Z,202
2022-12-08T12:00:04.942Z,135
2022-12-08T12:01:04.777Z,248
2022-12-08T12:02:04.790Z,248
2022-12-08T12:03:04.799Z,225
2022-12-08T12:04:04.779Z,202
2022-12-08T12:05:04.768Z,180
2022-12-08T12:06:13.498Z,180
2022-12-08T12:07:04.776Z,270
2022-12-08T12:08:04.875Z,248
2022-12-08T12:09:04.772Z,248
2022-12-08T12:10:05.000Z,202
2022-12-08T12:11:04.833Z,180
2022-12-08T12:12:04.910Z,225
2022-12-08T12:13:04.776Z,180
2022-12-08T12:14:04.803Z,202
2022-12-08T12:15:04.779Z,338
2022-12-08T12:16:04.795Z,158
2022-12-08T12:17:04.868Z,180
2022-12-08T12:18:04.795Z,225
2022-12-08T12:19:04.788Z,202
2022-12-08T12:20:05.166Z,225
2022-12-08T12:21:04.815Z,180
2022-12-08T12:22:04.782Z,248
2022-12-08T12:23:04.782Z,202
2022-12-08T12:24:04.803Z,225
2022-12-08T12:25:04.785Z,248
2022-12-08T12:26:04.792Z,248
2022-12-08T12:27:04.855Z,292
2022-12-08T12:28:04.794Z,292
2022-12-08T12:29:04.782Z,315
2022-12-08T12:30:04.937Z,315
2022-12-08T12:31:04.825Z,270
2022-12-08T12:32:04.817Z,180
2022-12-08T12:33:04.786Z,180
2022-12-08T12:34:04.807Z,180
2022-12-08T12:35:04.792Z,202
2022-12-08T12:36:04.809Z,180
2022-12-08T12:37:04.786Z,180
2022-12-08T12:38:04.784Z,248
2022-12-08T12:39:04.815Z,202
2022-12-08T12:40:05.398Z,248
2022-12-08T12:41:04.822Z,225
2022-12-08T12:42:04.795Z,248
2022-12-08T12:43:04.821Z,158
2022-12-08T12:44:04.808Z,180
2022-12-08T12:45:04.797Z,248
2022-12-08T12:46:04.819Z,180
2022-12-08T12:47:04.797Z,202
2022-12-08T12:48:04.793Z,180
2022-12-08T12:49:04.796Z,180
2022-12-08T12:50:05.120Z,202
2022-12-08T12:51:04.817Z,202
2022-12-08T12:52:04.801Z,202
2022-12-08T12:53:08.000Z,135
2022-12-08T12:54:04.802Z,158
2022-12-08T12:55:04.809Z,180
2022-12-08T12:56:04.828Z,202
2022-12-08T12:57:04.816Z,202
2022-12-08T12:58:04.786Z,248
2022-12-08T12:59:04.868Z,225
2022-12-08T13:00:04.872Z,180
2022-12-08T13:01:04.863Z,158
2022-12-08T13:02:04.907Z,202
2022-12-08T13:03:04.881Z,180
2022-12-08T13:04:04.847Z,225
2022-12-08T13:05:04.875Z,270
2022-12-08T13:06:05.630Z,248
2022-12-08T13:07:04.801Z,248
2022-12-08T13:08:04.919Z,202
2022-12-08T13:09:04.809Z,225
2022-12-08T13:10:05.289Z,180
2022-12-08T13:11:04.838Z,248
2022-12-08T13:12:05.126Z,158
2022-12-08T13:13:04.961Z,180
2022-12-08T13:14:04.807Z,202
2022-12-08T13:15:04.855Z,248
2022-12-08T13:16:12.855Z,180
2022-12-08T13:17:04.816Z,248
2022-12-08T13:18:04.806Z,202
2022-12-08T13:19:04.822Z,180
2022-12-08T13:20:05.338Z,248
2022-12-08T13:21:04.835Z,248
2022-12-08T13:22:04.807Z,248
2022-12-08T13:23:04.880Z,248
2022-12-08T13:24:04.822Z,225
2022-12-08T13:25:04.802Z,248
2022-12-08T13:26:04.832Z,248
2022-12-08T13:27:04.821Z,202
2022-12-08T13:28:04.811Z,248
2022-12-08T13:29:04.818Z,158
2022-12-08T13:30:05.268Z,248
2022-12-08T13:31:04.892Z,180
2022-12-08T13:32:04.815Z,158
2022-12-08T13:33:20.257Z,248
2022-12-08T13:34:04.827Z,180
2022-12-08T13:35:04.822Z,202
2022-12-08T13:36:04.910Z,202
2022-12-08T13:37:04.834Z,158
2022-12-08T13:38:04.826Z,248
2022-12-08T13:39:04.832Z,248
2022-12-08T13:40:05.060Z,248
2022-12-08T13:41:04.844Z,202
2022-12-08T13:42:04.837Z,248
2022-12-08T13:43:04.829Z,248
2022-12-08T13:45:33.944Z,180
2022-12-08T13:47:34.632Z,180
2022-12-08T13:56:24.555Z,158
2022-12-08T13:57:10.971Z,248